createdAt,value
2018-07-22T00:00:54.023Z,5.2
2018-07-22T00:02:09.958Z,5.1
2018-07-22T00:03:25.868Z,4.9
2018-07-22T00:04:41.804Z,5.2
2018-07-22T00:05:57.701Z,5.1
2018-07-22T00:07:13.604Z,4.8
2018-07-22T00:08:29.502Z,4.9
2018-07-22T00:09:45.398Z,4.9
2018-07-22T00:11:01.295Z,4.7
2018-07-22T00:12:17.226Z,5.3
2018-07-22T00:13:33.117Z,5.2
2018-07-22T00:14:49.029Z,5.2
2018-07-22T00:16:04.876Z,5
2018-07-22T00:17:20.779Z,4.9
2018-07-22T00:18:36.689Z,5.2
2018-07-22T00:19:52.590Z,5.1
2018-07-22T00:21:08.507Z,5.6
2018-07-22T00:22:24.387Z,5
2018-07-22T00:23:40.308Z,4.7
2018-07-22T00:24:56.246Z,4.8
2018-07-22T00:26:12.147Z,5
2018-07-22T00:27:28.024Z,5.2
2018-07-22T00:28:43.955Z,5.2
2018-07-22T00:29:59.861Z,5.3
2018-07-22T00:31:15.783Z,4.7
2018-07-22T00:32:31.674Z,4.9
2018-07-22T00:33:47.600Z,4.8
2018-07-22T00:35:03.530Z,5.1
2018-07-22T00:36:19.418Z,5
2018-07-22T00:37:35.336Z,5.3
2018-07-22T00:38:51.260Z,5
2018-07-22T00:40:07.227Z,5
2018-07-22T00:41:23.109Z,4.7
2018-07-22T00:42:38.997Z,5.2
2018-07-22T00:43:54.890Z,5
2018-07-22T00:45:10.793Z,5.1
2018-07-22T00:46:26.657Z,4.5
2018-07-22T00:47:42.541Z,5.3
2018-07-22T00:48:58.456Z,5.1
2018-07-22T00:50:14.421Z,5.1
2018-07-22T00:51:30.354Z,5.1
2018-07-22T00:52:46.256Z,5
2018-07-22T00:54:02.169Z,4.9
2018-07-22T00:55:18.086Z,5.4
2018-07-22T00:56:33.968Z,5
2018-07-22T00:57:49.894Z,5.5
2018-07-22T00:59:05.784Z,5.1
2018-07-22T01:00:21.770Z,4.5
2018-07-22T01:01:37.649Z,4.2
2018-07-22T01:02:53.576Z,4.4
2018-07-22T01:04:09.478Z,4.8
2018-07-22T01:05:25.463Z,4.5
2018-07-22T01:06:41.324Z,4.5
2018-07-22T01:07:57.221Z,4.2
2018-07-22T01:09:13.132Z,4.5
2018-07-22T01:10:29.051Z,4.6
2018-07-22T01:11:44.951Z,4.4
2018-07-22T01:13:00.833Z,4.3
2018-07-22T01:14:16.776Z,4.5
2018-07-22T01:15:32.688Z,4.4
2018-07-22T01:16:48.580Z,4.5
2018-07-22T01:18:04.541Z,4.4
2018-07-22T01:19:20.480Z,4.7
2018-07-22T01:20:36.360Z,4.2
2018-07-22T01:21:52.233Z,4.3
2018-07-22T01:23:08.170Z,4.2
2018-07-22T01:24:24.069Z,4.4
2018-07-22T01:25:40.012Z,4.3
2018-07-22T01:26:55.945Z,4.4
2018-07-22T01:28:11.936Z,4.5
2018-07-22T01:29:27.812Z,4.2
2018-07-22T01:30:43.706Z,4.3
2018-07-22T01:31:59.617Z,5
2018-07-22T01:33:15.549Z,4.8
2018-07-22T01:34:31.461Z,5.1
2018-07-22T01:35:47.364Z,5.2
2018-07-22T01:37:03.243Z,4.6
2018-07-22T01:38:19.217Z,4.7
2018-07-22T01:39:35.150Z,4.5
2018-07-22T01:40:51.036Z,4.7
2018-07-22T01:42:06.949Z,4.7
2018-07-22T01:43:22.913Z,4.7
2018-07-22T01:44:38.764Z,4.7
2018-07-22T01:45:54.655Z,4.5
2018-07-22T01:47:10.557Z,5
2018-07-22T01:48:26.489Z,4.9
2018-07-22T01:49:42.394Z,5.1
2018-07-22T01:50:58.288Z,4.8
2018-07-22T01:52:14.194Z,4.5
2018-07-22T01:53:30.140Z,4.9
2018-07-22T01:54:46.000Z,4.6
2018-07-22T01:56:01.895Z,4.4
2018-07-22T01:57:17.798Z,4.8
2018-07-22T01:58:33.730Z,4.6
2018-07-22T01:59:49.671Z,4.5
2018-07-22T02:01:05.595Z,5.1
2018-07-22T02:02:21.510Z,5
2018-07-22T02:03:37.427Z,5
2018-07-22T02:04:53.361Z,5.2
2018-07-22T02:06:09.239Z,5.1
2018-07-22T02:07:25.135Z,5.1
2018-07-22T02:08:41.041Z,4.9
2018-07-22T02:09:56.948Z,5.1
2018-07-22T02:11:12.894Z,4.6
2018-07-22T02:12:28.784Z,4.8
2018-07-22T02:13:45.646Z,5
2018-07-22T02:15:01.586Z,5.4
2018-07-22T02:16:17.511Z,4.6
2018-07-22T02:17:33.408Z,4.8
2018-07-22T02:18:49.343Z,5
2018-07-22T02:20:05.274Z,5.3
2018-07-22T02:21:21.216Z,5.1
2018-07-22T02:22:37.090Z,5
2018-07-22T02:23:52.940Z,5.4
2018-07-22T02:25:08.816Z,5.1
2018-07-22T02:26:24.680Z,5.2
2018-07-22T02:27:40.539Z,5.2
2018-07-22T02:28:56.408Z,5.1
2018-07-22T02:30:12.396Z,4.9
2018-07-22T02:31:28.355Z,5
2018-07-22T02:32:44.239Z,5.2
2018-07-22T02:34:00.133Z,5
2018-07-22T02:35:16.025Z,5.3
2018-07-22T02:36:31.979Z,5.2
2018-07-22T02:37:47.872Z,5.4
2018-07-22T02:39:03.744Z,5.1
2018-07-22T02:40:19.637Z,5.9
2018-07-22T02:41:35.550Z,5.4
2018-07-22T02:42:51.433Z,5.6
2018-07-22T02:44:07.343Z,4.9
2018-07-22T02:45:23.315Z,5.4
2018-07-22T02:46:39.225Z,5
2018-07-22T02:47:55.121Z,5.1
2018-07-22T02:49:11.008Z,5.2
2018-07-22T02:50:26.927Z,5.3
2018-07-22T02:51:42.961Z,5.2
2018-07-22T02:52:58.837Z,5.3
2018-07-22T02:54:14.785Z,5.5
2018-07-22T02:55:30.649Z,5.3
2018-07-22T02:56:46.560Z,5.3
2018-07-22T02:58:02.461Z,5.1
2018-07-22T02:59:18.330Z,5.4
2018-07-22T03:00:34.218Z,5.5
2018-07-22T03:01:50.113Z,5.4
2018-07-22T03:03:06.016Z,5.2
2018-07-22T03:04:21.910Z,5.2
2018-07-22T03:05:37.840Z,5.2
2018-07-22T03:06:53.761Z,5.3
2018-07-22T03:08:10.535Z,5.5
2018-07-22T03:09:26.432Z,5.5
2018-07-22T03:10:42.344Z,5.1
2018-07-22T03:11:58.251Z,5.2
2018-07-22T03:13:14.177Z,4.9
2018-07-22T03:14:30.093Z,5.3
2018-07-22T03:15:45.972Z,4.8
2018-07-22T03:17:01.851Z,4.3
2018-07-22T03:18:17.769Z,4.7
2018-07-22T03:19:33.689Z,4.6
2018-07-22T03:20:49.567Z,4.4
2018-07-22T03:22:05.464Z,4.7
2018-07-22T03:23:21.380Z,5
2018-07-22T03:24:37.272Z,5.8
2018-07-22T03:25:53.158Z,5.3
2018-07-22T03:27:09.044Z,4.7
2018-07-22T03:28:24.976Z,5.6
2018-07-22T03:29:40.868Z,5
2018-07-22T03:30:56.785Z,5.5
2018-07-22T03:32:12.657Z,5.9
2018-07-22T03:33:28.561Z,5.3
2018-07-22T03:34:44.449Z,5.3
2018-07-22T03:36:00.341Z,5.2
2018-07-22T03:37:16.226Z,5.8
2018-07-22T03:38:32.115Z,5.1
2018-07-22T03:39:48.096Z,5.2
2018-07-22T03:41:04.031Z,5.1
2018-07-22T03:42:19.911Z,4.9
2018-07-22T03:43:35.810Z,4.8
2018-07-22T03:44:51.730Z,4.9
2018-07-22T03:46:07.639Z,4.8
2018-07-22T03:47:23.653Z,4.7
2018-07-22T03:48:39.540Z,4.8
2018-07-22T03:49:55.422Z,4.9
2018-07-22T03:51:11.344Z,5.6
2018-07-22T03:52:28.217Z,5
2018-07-22T03:53:44.114Z,5.1
2018-07-22T03:54:59.976Z,4.9
2018-07-22T03:56:15.961Z,4.7
2018-07-22T03:57:31.838Z,4.6
2018-07-22T03:58:47.714Z,4.9
2018-07-22T04:00:03.604Z,4.7
2018-07-22T04:01:19.513Z,4.6
2018-07-22T04:02:35.462Z,4.9
2018-07-22T04:03:51.322Z,5
2018-07-22T04:05:07.310Z,4.9
2018-07-22T04:06:23.198Z,4.8
2018-07-22T04:07:39.182Z,5.5
2018-07-22T04:08:55.121Z,5
2018-07-22T04:10:11.056Z,5.1
2018-07-22T04:11:26.965Z,5.1
2018-07-22T04:12:42.910Z,4.8
2018-07-22T04:13:58.796Z,5.5
2018-07-22T04:15:14.688Z,5.5
2018-07-22T04:16:30.550Z,5.2
2018-07-22T04:17:46.447Z,5.2
2018-07-22T04:19:02.376Z,5.5
2018-07-22T04:20:18.291Z,5
2018-07-22T04:21:34.196Z,5.7
2018-07-22T04:22:50.104Z,5
2018-07-22T04:24:06.018Z,5.3
2018-07-22T04:25:21.991Z,4.8
2018-07-22T04:26:37.806Z,4.8
2018-07-22T04:27:53.751Z,4.7
2018-07-22T04:29:09.660Z,4.6
2018-07-22T04:30:25.594Z,5
2018-07-22T04:31:41.472Z,5.3
2018-07-22T04:32:57.368Z,5.1
2018-07-22T04:34:13.288Z,4.6
2018-07-22T04:35:29.162Z,4.9
2018-07-22T04:36:45.189Z,5.6
2018-07-22T04:38:01.103Z,5.2
2018-07-22T04:39:16.983Z,5.1
2018-07-22T04:40:32.958Z,5.5
2018-07-22T04:41:48.955Z,5.8
2018-07-22T04:43:04.874Z,5.2
2018-07-22T04:44:20.804Z,5.3
2018-07-22T04:45:36.690Z,5.5
2018-07-22T04:46:52.633Z,5.3
2018-07-22T04:48:08.568Z,6
2018-07-22T04:49:24.435Z,5.4
2018-07-22T04:50:40.341Z,5.3
2018-07-22T04:51:56.327Z,5.6
2018-07-22T04:53:12.254Z,5.9
2018-07-22T04:54:28.137Z,5.5
2018-07-22T04:55:44.047Z,5.5
2018-07-22T04:56:59.911Z,5.9
2018-07-22T04:58:15.889Z,5.6
2018-07-22T04:59:31.782Z,5.3
2018-07-22T05:00:47.684Z,5.7
2018-07-22T05:02:03.541Z,5.5
2018-07-22T05:03:19.473Z,5.9
2018-07-22T05:04:35.377Z,6.1
2018-07-22T05:05:51.268Z,6.1
2018-07-22T05:07:07.154Z,5.8
2018-07-22T05:08:23.097Z,5.8
2018-07-22T05:09:38.978Z,6.2
2018-07-22T05:10:54.895Z,5.8
2018-07-22T05:12:10.778Z,6.3
2018-07-22T05:13:26.680Z,6.2
2018-07-22T05:14:42.626Z,6.6
2018-07-22T05:15:58.528Z,6.3
2018-07-22T05:17:14.401Z,6.8
2018-07-22T05:18:30.390Z,7.3
2018-07-22T05:19:46.280Z,6.7
2018-07-22T05:21:02.163Z,7.6
2018-07-22T05:22:18.079Z,6.8
2018-07-22T05:23:33.964Z,6.8
2018-07-22T05:24:49.884Z,6.4
2018-07-22T05:26:05.766Z,6.7
2018-07-22T05:27:21.733Z,7.1
2018-07-22T05:28:37.664Z,7.3
2018-07-22T05:29:53.617Z,6.7
2018-07-22T05:31:09.527Z,6.9
2018-07-22T05:32:25.416Z,6.9
2018-07-22T05:33:41.299Z,6.8
2018-07-22T05:34:57.222Z,7.3
2018-07-22T05:36:13.164Z,7.1
2018-07-22T05:37:29.015Z,7.4
2018-07-22T05:38:44.973Z,7
2018-07-22T05:40:00.903Z,6.7
2018-07-22T05:41:16.872Z,6.5
2018-07-22T05:42:32.770Z,7.1
2018-07-22T05:43:48.758Z,7.3
2018-07-22T05:45:04.714Z,7.2
2018-07-22T05:46:20.664Z,7.5
2018-07-22T05:47:36.578Z,7.6
2018-07-22T05:48:52.515Z,7.5
2018-07-22T05:50:08.447Z,7.2
2018-07-22T05:51:24.341Z,6.6
2018-07-22T05:52:40.263Z,6.6
2018-07-22T05:53:56.225Z,6.9
2018-07-22T05:55:12.069Z,7.1
2018-07-22T05:56:27.954Z,7.8
2018-07-22T05:57:43.914Z,7.6
2018-07-22T05:58:59.829Z,7.1
2018-07-22T06:00:15.756Z,7
2018-07-22T06:01:31.835Z,6.8
2018-07-22T06:02:47.792Z,7.4
2018-07-22T06:04:03.698Z,7.4
2018-07-22T06:05:19.639Z,7.3
2018-07-22T06:06:35.583Z,7.5
2018-07-22T06:07:51.541Z,7.9
2018-07-22T06:09:08.517Z,7.3
2018-07-22T06:10:24.465Z,7.6
2018-07-22T06:11:40.479Z,7.3
2018-07-22T06:12:56.373Z,7.8
2018-07-22T06:14:12.229Z,7.4
2018-07-22T06:15:28.139Z,7.2
2018-07-22T06:16:44.087Z,7.1
2018-07-22T06:17:59.976Z,7.1
2018-07-22T06:19:16.173Z,7.4
2018-07-22T06:20:32.117Z,7.6
2018-07-22T06:21:48.103Z,7.7
2018-07-22T06:23:04.003Z,7.3
2018-07-22T06:24:19.924Z,7.8
2018-07-22T06:25:35.876Z,7.1
2018-07-22T06:26:51.810Z,7
2018-07-22T06:28:07.706Z,6.6
2018-07-22T06:29:23.668Z,6.7
2018-07-22T06:30:39.590Z,6.3
2018-07-22T06:31:55.658Z,7.3
2018-07-22T06:33:11.591Z,7.4
2018-07-22T06:34:27.484Z,7.9
2018-07-22T06:35:43.367Z,7.6
2018-07-22T06:36:59.296Z,6.9
2018-07-22T06:38:15.160Z,6.8
2018-07-22T06:39:31.028Z,6.7
2018-07-22T06:40:46.983Z,6.6
2018-07-22T06:42:02.935Z,6.7
2018-07-22T06:43:18.902Z,6.2
2018-07-22T06:44:34.827Z,6.1
2018-07-22T06:45:50.806Z,6.2
2018-07-22T06:47:06.790Z,6.1
2018-07-22T06:48:22.774Z,6.1
2018-07-22T06:49:38.713Z,6.5
2018-07-22T06:50:54.635Z,6.1
2018-07-22T06:52:10.597Z,6.6
2018-07-22T06:53:26.575Z,6.8
2018-07-22T06:54:42.471Z,6.5
2018-07-22T06:55:58.411Z,6.3
2018-07-22T06:57:14.419Z,6.4
2018-07-22T06:58:30.312Z,6.6
2018-07-22T06:59:46.243Z,6.7
2018-07-22T07:01:02.358Z,6.6
2018-07-22T07:02:18.194Z,7
2018-07-22T07:03:34.127Z,7
2018-07-22T07:04:50.100Z,7.2
2018-07-22T07:06:06.060Z,7.4
2018-07-22T07:07:22.065Z,7.5
2018-07-22T07:08:39.118Z,7.2
2018-07-22T07:09:55.245Z,8.1
2018-07-22T07:11:11.358Z,7.2
2018-07-22T07:12:27.325Z,7.2
2018-07-22T07:13:43.273Z,6.8
2018-07-22T07:14:59.149Z,7.3
2018-07-22T07:16:15.107Z,7
2018-07-22T07:17:31.072Z,6.4
2018-07-22T07:18:47.070Z,7.1
2018-07-22T07:20:02.958Z,7.4
2018-07-22T07:21:18.934Z,7.4
2018-07-22T07:22:34.861Z,7.2
2018-07-22T07:23:50.794Z,6.6
2018-07-22T07:25:06.964Z,7.1
2018-07-22T07:26:22.880Z,6.9
2018-07-22T07:27:38.798Z,7
2018-07-22T07:28:55.695Z,6.9
2018-07-22T07:30:11.618Z,7.1
2018-07-22T07:31:27.572Z,6.5
2018-07-22T07:32:43.532Z,6.8
2018-07-22T07:33:59.483Z,6.9
2018-07-22T07:35:15.504Z,6.5
2018-07-22T07:36:31.468Z,6.5
2018-07-22T07:37:47.397Z,6.7
2018-07-22T07:39:03.359Z,7.3
2018-07-22T07:40:19.276Z,7.3
2018-07-22T07:41:35.218Z,6.7
2018-07-22T07:42:51.176Z,6.4
2018-07-22T07:44:07.150Z,6.5
2018-07-22T07:45:23.064Z,6.6
2018-07-22T07:46:39.025Z,6.7
2018-07-22T07:47:54.917Z,7.1
2018-07-22T07:49:11.417Z,6.7
2018-07-22T07:50:27.645Z,7.2
2018-07-22T07:51:43.613Z,6.8
2018-07-22T07:52:59.560Z,6.6
2018-07-22T07:54:15.510Z,6.4
2018-07-22T07:55:31.410Z,7
2018-07-22T07:56:47.346Z,7.2
2018-07-22T07:58:03.813Z,7.6
2018-07-22T07:59:21.188Z,7.1
2018-07-22T08:00:37.074Z,7.1
2018-07-22T08:01:53.018Z,7.4
2018-07-22T08:03:08.929Z,7.1
2018-07-22T08:04:24.848Z,7.5
2018-07-22T08:05:40.843Z,7.4
2018-07-22T08:06:56.751Z,7.5
2018-07-22T08:08:12.680Z,7.6
2018-07-22T08:09:28.592Z,7.5
2018-07-22T08:10:44.586Z,8
2018-07-22T08:12:00.704Z,7.3
2018-07-22T08:13:16.742Z,8
2018-07-22T08:14:32.718Z,7.7
2018-07-22T08:15:48.716Z,7.7
2018-07-22T08:17:04.662Z,8.1
2018-07-22T08:18:20.619Z,8.9
2018-07-22T08:19:36.632Z,9
2018-07-22T08:20:52.587Z,8.8
2018-07-22T08:22:08.550Z,8.3
2018-07-22T08:23:24.737Z,7.9
2018-07-22T08:24:40.733Z,7.8
2018-07-22T08:25:57.072Z,7.8
2018-07-22T08:27:13.076Z,8.1
2018-07-22T08:28:29.251Z,7.7
2018-07-22T08:29:45.327Z,7.8
2018-07-22T08:31:01.282Z,7.4
2018-07-22T08:32:17.214Z,7.5
2018-07-22T08:33:33.167Z,7.8
2018-07-22T08:34:49.286Z,8.4
2018-07-22T08:36:05.272Z,8.5
2018-07-22T08:37:21.228Z,9
2018-07-22T08:38:37.199Z,7.7
2018-07-22T08:39:53.151Z,7.4
2018-07-22T08:41:09.154Z,7.4
2018-07-22T08:42:24.010Z,7.9
2018-07-22T08:43:39.974Z,7.2
2018-07-22T08:44:55.965Z,7.7
2018-07-22T08:46:11.864Z,7.8
2018-07-22T08:47:27.853Z,7.8
2018-07-22T08:48:43.819Z,7.3
2018-07-22T08:50:00.127Z,7.6
2018-07-22T08:51:16.045Z,7.7
2018-07-22T08:52:31.940Z,8.4
2018-07-22T08:53:47.863Z,7.8
2018-07-22T08:55:03.767Z,7.6
2018-07-22T08:56:19.849Z,7.7
2018-07-22T08:57:35.816Z,7.9
2018-07-22T08:58:51.836Z,8.3
2018-07-22T09:01:48.236Z,7.8
2018-07-22T09:03:04.180Z,7.6
2018-07-22T09:04:20.144Z,8.2
2018-07-22T09:05:36.107Z,8.1
2018-07-22T09:06:52.039Z,7.8
2018-07-22T09:08:07.966Z,8.4
2018-07-22T09:09:23.955Z,9
2018-07-22T09:10:39.899Z,9
2018-07-22T09:11:56.290Z,9.2
2018-07-22T09:13:12.305Z,8.7
2018-07-22T09:14:28.266Z,8.4
2018-07-22T09:15:44.290Z,8.6
2018-07-22T09:17:00.359Z,8.9
2018-07-22T09:18:16.325Z,9.3
2018-07-22T09:19:32.383Z,8.4
2018-07-22T09:20:48.319Z,8.8
2018-07-22T09:22:04.287Z,9.4
2018-07-22T09:23:20.294Z,9.7
2018-07-22T09:24:36.233Z,9.4
2018-07-22T09:25:52.190Z,9.1
2018-07-22T09:27:08.183Z,9.3
2018-07-22T09:28:24.079Z,9.3
2018-07-22T09:29:40.054Z,9.3
2018-07-22T09:30:56.057Z,10
2018-07-22T09:32:12.142Z,9.7
2018-07-22T09:33:28.107Z,10
2018-07-22T09:34:44.249Z,9.5
2018-07-22T09:36:00.262Z,9.8
2018-07-22T09:37:16.296Z,9.6
2018-07-22T09:38:32.671Z,9.1
2018-07-22T09:39:48.988Z,9.6
2018-07-22T09:41:04.925Z,9.9
2018-07-22T09:42:21.042Z,9.6
2018-07-22T09:43:37.015Z,9.8
2018-07-22T09:44:52.995Z,9.4
2018-07-22T09:46:08.983Z,10.3
2018-07-22T09:47:24.982Z,10
2018-07-22T09:48:41.059Z,9.4
2018-07-22T09:49:57.509Z,9.7
2018-07-22T09:51:13.480Z,9.5
2018-07-22T09:52:29.463Z,9.9
2018-07-22T09:53:45.508Z,9.2
2018-07-22T09:55:01.459Z,9.5
2018-07-22T09:56:17.444Z,9.2
2018-07-22T09:57:33.473Z,8.6
2018-07-22T09:58:49.524Z,9
2018-07-22T10:00:05.507Z,9.3
2018-07-22T10:01:21.516Z,9.3
2018-07-22T10:02:37.458Z,9.2
2018-07-22T10:03:53.470Z,9.3
2018-07-22T10:05:09.437Z,9.2
2018-07-22T10:06:25.356Z,9.6
2018-07-22T10:07:41.506Z,9.8
2018-07-22T10:08:57.516Z,9.6
2018-07-22T10:10:13.492Z,9.5
2018-07-22T10:11:29.480Z,9.6
2018-07-22T10:12:45.516Z,8.9
2018-07-22T10:14:01.546Z,9.1
2018-07-22T10:15:17.538Z,9
2018-07-22T10:16:33.516Z,9.1
2018-07-22T10:17:49.479Z,9.3
2018-07-22T10:19:05.478Z,9
2018-07-22T10:22:02.065Z,8.7
2018-07-22T10:23:18.051Z,8.8
2018-07-22T10:26:14.840Z,8.5
2018-07-22T10:27:30.844Z,8.8
2018-07-22T10:28:46.905Z,8
2018-07-22T10:30:02.877Z,7.9
2018-07-22T10:31:18.852Z,8
2018-07-22T10:32:34.853Z,7.9
2018-07-22T10:33:50.790Z,8.5
2018-07-22T10:35:06.751Z,9
2018-07-22T10:36:22.744Z,8.6
2018-07-22T10:37:38.703Z,9.7
2018-07-22T10:41:51.430Z,9.1
2018-07-22T10:43:07.493Z,8.6
2018-07-22T10:44:23.409Z,8.2
2018-07-22T10:45:39.409Z,8
2018-07-22T10:46:55.412Z,8.7
2018-07-22T10:48:11.437Z,8.2
2018-07-22T10:49:27.475Z,8.1
2018-07-22T10:50:43.445Z,8.2
2018-07-22T10:51:59.376Z,7.6
2018-07-22T10:53:15.449Z,8.1
2018-07-22T10:54:31.375Z,7.9
2018-07-22T10:55:47.331Z,8.4
2018-07-22T10:57:03.472Z,8.5
2018-07-22T10:58:19.521Z,9
2018-07-22T10:59:35.641Z,8.7
2018-07-22T11:00:51.820Z,8.6
2018-07-22T11:02:07.839Z,9
2018-07-22T11:03:23.953Z,8.8
2018-07-22T11:04:39.986Z,8.9
2018-07-22T11:05:55.954Z,8.9
2018-07-22T11:07:11.969Z,9.4
2018-07-22T11:08:27.968Z,9.5
2018-07-22T11:09:44.211Z,9.6
2018-07-22T11:11:00.378Z,9.5
2018-07-22T11:12:16.561Z,9.5
2018-07-22T11:13:32.590Z,8.6
2018-07-22T11:14:48.686Z,8.6
2018-07-22T11:16:04.646Z,9.2
2018-07-22T11:17:20.737Z,8.7
2018-07-22T11:18:36.773Z,8.4
2018-07-22T11:19:52.930Z,8.4
2018-07-22T11:21:09.042Z,8.1
2018-07-22T11:22:24.963Z,8.4
2018-07-22T11:23:40.968Z,8.9
2018-07-22T11:24:56.944Z,9.1
2018-07-22T11:26:13.014Z,8.6
2018-07-22T11:27:29.059Z,8.6
2018-07-22T11:28:45.157Z,8.7
2018-07-22T11:30:01.075Z,8.6
2018-07-22T11:31:17.033Z,8.5
2018-07-22T11:32:33.022Z,8.1
2018-07-22T11:33:48.990Z,8.1
2018-07-22T11:35:04.929Z,8.3
2018-07-22T11:36:20.949Z,9.1
2018-07-22T11:37:36.986Z,8.4
2018-07-22T11:38:52.995Z,7.7
2018-07-22T11:40:08.903Z,7.3
2018-07-22T11:41:24.824Z,7.8
2018-07-22T11:42:40.945Z,7.6
2018-07-22T11:43:57.101Z,7.2
2018-07-22T11:45:13.029Z,7.4
2018-07-22T11:46:28.994Z,7.9
2018-07-22T11:47:44.969Z,7.6
2018-07-22T11:49:00.917Z,7.8
2018-07-22T11:50:16.881Z,7.3
2018-07-22T11:51:32.867Z,7.3
2018-07-22T11:52:48.911Z,7.9
2018-07-22T11:54:04.875Z,7.4
2018-07-22T11:55:20.843Z,7.1
2018-07-22T11:56:36.752Z,7.1
2018-07-22T11:57:52.765Z,6.9
2018-07-22T11:59:08.771Z,7.8
2018-07-22T12:00:24.748Z,8.3
2018-07-22T12:01:40.771Z,7.6
2018-07-22T12:02:56.731Z,7.5
2018-07-22T12:04:12.747Z,7.2
2018-07-22T12:05:28.771Z,7.6
2018-07-22T12:06:44.744Z,7.2
2018-07-22T12:08:00.656Z,7.4
2018-07-22T12:09:16.748Z,7.7
2018-07-22T12:10:32.675Z,7.4
2018-07-22T12:11:48.638Z,8
2018-07-22T12:13:04.597Z,7.9
2018-07-22T12:14:20.601Z,8.1
2018-07-22T12:15:36.613Z,7.9
2018-07-22T12:16:52.588Z,7.9
2018-07-22T12:18:08.611Z,8
2018-07-22T12:19:24.619Z,8
2018-07-22T12:20:40.554Z,7.3
2018-07-22T12:21:56.562Z,7.5
2018-07-22T12:23:12.740Z,7.5
2018-07-22T12:24:28.765Z,8
2018-07-22T12:25:44.753Z,8.1
2018-07-22T12:27:00.826Z,8.3
2018-07-22T12:28:16.880Z,8.7
2018-07-22T12:29:33.346Z,8.2
2018-07-22T12:30:49.396Z,9
2018-07-22T12:32:05.500Z,9.9
2018-07-22T12:33:21.494Z,10
2018-07-22T12:34:37.633Z,9.5
2018-07-22T12:35:53.718Z,10.5
2018-07-22T12:38:50.547Z,10.3
2018-07-22T12:40:08.366Z,10
2018-07-22T12:41:24.554Z,9
2018-07-22T12:44:21.443Z,8.5
2018-07-22T12:45:38.518Z,9.4
2018-07-22T12:46:55.157Z,9.3
2018-07-22T12:48:11.866Z,9.5
2018-07-22T12:49:28.265Z,9
2018-07-22T12:50:44.218Z,8.7
2018-07-22T12:52:00.293Z,9
2018-07-22T12:53:16.240Z,8.7
2018-07-22T12:54:32.204Z,9.4
2018-07-22T12:55:48.204Z,8.9
2018-07-22T12:57:04.674Z,8.3
2018-07-22T12:58:20.665Z,9.5
2018-07-22T12:59:36.698Z,9
2018-07-22T13:00:52.705Z,8.6
2018-07-22T13:02:08.708Z,8.2
2018-07-22T13:03:24.683Z,8.7
2018-07-22T13:04:40.670Z,8.2
2018-07-22T13:05:56.662Z,8.5
2018-07-22T13:07:12.679Z,8.6
2018-07-22T13:08:28.784Z,9.5
2018-07-22T13:09:44.780Z,8.3
2018-07-22T13:11:00.766Z,8.4
2018-07-22T13:12:16.724Z,8.4
2018-07-22T13:13:32.763Z,8.1
2018-07-22T13:16:29.426Z,8.2
2018-07-22T13:17:45.459Z,8
2018-07-22T13:19:01.571Z,7.9
2018-07-22T13:20:17.478Z,8.3
2018-07-22T13:21:33.410Z,8.2
2018-07-22T13:24:30.263Z,7.3
2018-07-22T13:25:46.292Z,8.3
2018-07-22T13:27:02.281Z,7.3
2018-07-22T13:28:18.321Z,7.7
2018-07-22T13:29:34.396Z,8.2
2018-07-22T13:30:50.550Z,8.8
2018-07-22T13:32:06.566Z,7.4
2018-07-22T13:33:22.669Z,7.1
2018-07-22T13:34:38.665Z,7.5
2018-07-22T13:35:54.653Z,7.9
2018-07-22T13:37:10.638Z,7.6
2018-07-22T13:38:26.706Z,6.9
2018-07-22T13:39:42.702Z,7
2018-07-22T13:40:58.759Z,6.7
2018-07-22T13:42:14.728Z,6.6
2018-07-22T13:43:30.779Z,6.4
2018-07-22T13:44:47.134Z,7
2018-07-22T13:46:03.239Z,8.4
2018-07-22T13:47:19.228Z,8.4
2018-07-22T13:48:35.162Z,8.1
2018-07-22T13:49:51.261Z,8.5
2018-07-22T13:51:07.318Z,8.9
2018-07-22T13:52:23.335Z,9
2018-07-22T13:53:39.301Z,8.9
2018-07-22T13:54:55.267Z,8.6
2018-07-22T13:56:11.286Z,8.1
2018-07-22T13:57:27.192Z,8.4
2018-07-22T13:58:43.228Z,7.4
2018-07-22T13:59:59.231Z,9
2018-07-22T14:01:15.215Z,8.9
2018-07-22T14:02:31.246Z,9
2018-07-22T14:03:47.214Z,9.5
2018-07-22T14:05:03.256Z,8.8
2018-07-22T14:06:19.243Z,9.4
2018-07-22T14:07:35.199Z,8.7
2018-07-22T14:08:51.224Z,8.5
2018-07-22T14:10:07.210Z,8.9
2018-07-22T14:11:23.261Z,8.5
2018-07-22T14:14:20.144Z,8.2
2018-07-22T14:15:36.186Z,8.8
2018-07-22T14:16:52.164Z,8.7
2018-07-22T14:18:08.228Z,9
2018-07-22T14:19:24.262Z,9.1
2018-07-22T14:20:40.303Z,8.6
2018-07-22T14:21:56.252Z,8.7
2018-07-22T14:23:12.267Z,7.8
2018-07-22T14:24:28.352Z,8
2018-07-22T14:25:44.344Z,8.1
2018-07-22T14:27:00.298Z,7.7
2018-07-22T14:28:16.365Z,8
2018-07-22T14:29:32.321Z,8.1
2018-07-22T14:30:48.251Z,8.6
2018-07-22T14:32:04.279Z,8.5
2018-07-22T14:33:20.318Z,8.4
2018-07-22T14:34:36.366Z,7.7
2018-07-22T14:35:52.430Z,8.5
2018-07-22T14:37:08.514Z,7.4
2018-07-22T14:38:24.582Z,7.8
2018-07-22T14:39:40.599Z,8
2018-07-22T14:40:57.016Z,7.1
2018-07-22T14:42:12.886Z,7.7
2018-07-22T14:43:28.894Z,7.5
2018-07-22T14:44:44.884Z,7.8
2018-07-22T14:46:00.864Z,7.4
2018-07-22T14:47:16.899Z,7.4
2018-07-22T14:48:32.868Z,7.7
2018-07-22T14:49:48.874Z,7.9
2018-07-22T14:51:04.890Z,7.4
2018-07-22T14:52:20.803Z,7.5
2018-07-22T14:53:36.929Z,6.8
2018-07-22T14:54:52.828Z,6.9
2018-07-22T14:56:08.804Z,6.8
2018-07-22T14:57:24.744Z,7.6
2018-07-22T14:58:40.765Z,7
2018-07-22T14:59:56.809Z,6.7
2018-07-22T15:01:12.765Z,6.8
2018-07-22T15:02:28.722Z,6.3
2018-07-22T15:03:44.685Z,6.7
2018-07-22T15:05:00.740Z,6.9
2018-07-22T15:06:16.774Z,6.6
2018-07-22T15:07:32.847Z,6.4
2018-07-22T15:08:48.894Z,6.3
2018-07-22T15:10:04.829Z,6.3
2018-07-22T15:11:20.790Z,6.3
2018-07-22T15:12:36.793Z,6.5
2018-07-22T15:13:52.797Z,6.1
2018-07-22T15:15:08.797Z,6.2
2018-07-22T15:16:24.754Z,6.2
2018-07-22T15:17:40.745Z,6.1
2018-07-22T15:18:56.778Z,6.1
2018-07-22T15:20:12.801Z,6
2018-07-22T15:21:28.773Z,6.7
2018-07-22T15:22:44.753Z,6.2
2018-07-22T15:24:00.782Z,5.9
2018-07-22T15:25:16.732Z,5.9
2018-07-22T15:26:32.759Z,6.2
2018-07-22T15:27:48.880Z,6
2018-07-22T15:29:04.884Z,6.3
2018-07-22T15:30:20.786Z,6.3
2018-07-22T15:31:36.763Z,6.3
2018-07-22T15:32:52.718Z,5.8
2018-07-22T15:34:08.711Z,6.2
2018-07-22T15:35:24.707Z,6
2018-07-22T15:36:40.669Z,5.6
2018-07-22T15:37:56.668Z,5.8
2018-07-22T15:39:12.690Z,6.2
2018-07-22T15:40:28.624Z,6
2018-07-22T15:41:44.592Z,5.7
2018-07-22T15:43:00.578Z,5.7
2018-07-22T15:44:16.582Z,5.9
2018-07-22T15:45:32.599Z,5.8
2018-07-22T15:46:48.550Z,5.9
2018-07-22T15:48:04.559Z,6.2
2018-07-22T15:49:20.559Z,5.7
2018-07-22T15:50:36.508Z,5.9
2018-07-22T15:51:52.477Z,6
2018-07-22T15:53:08.484Z,5.9
2018-07-22T15:54:24.480Z,5.9
2018-07-22T15:55:40.757Z,5.6
2018-07-22T15:56:56.471Z,5.6
2018-07-22T15:58:12.416Z,5.7
2018-07-22T15:59:28.397Z,5.6
2018-07-22T16:00:44.364Z,5.6
2018-07-22T16:02:00.325Z,5.4
2018-07-22T16:03:16.446Z,5.5
2018-07-22T16:04:32.382Z,5.8
2018-07-22T16:05:48.368Z,5.6
2018-07-22T16:07:04.352Z,5.4
2018-07-22T16:08:20.355Z,5.3
2018-07-22T16:09:36.321Z,6
2018-07-22T16:10:52.304Z,5.3
2018-07-22T16:12:08.230Z,5.5
2018-07-22T16:13:24.181Z,5.3
2018-07-22T16:14:40.147Z,5.3
2018-07-22T16:15:56.116Z,5.7
2018-07-22T16:17:12.058Z,5.4
2018-07-22T16:18:28.053Z,5.8
2018-07-22T16:19:44.189Z,5.9
2018-07-22T16:21:00.188Z,5.6
2018-07-22T16:22:16.149Z,5.7
2018-07-22T16:23:32.091Z,5.9
2018-07-22T16:24:48.184Z,6.4
2018-07-22T16:26:04.157Z,5.8
2018-07-22T16:27:20.125Z,6.6
2018-07-22T16:28:36.091Z,7.3
2018-07-22T16:29:52.080Z,6.8
2018-07-22T16:31:08.111Z,7.4
2018-07-22T16:32:24.097Z,7
2018-07-22T16:33:40.129Z,7.3
2018-07-22T16:34:56.051Z,7.9
2018-07-22T16:36:12.059Z,7.3
2018-07-22T16:37:28.097Z,7.8
2018-07-22T16:38:44.038Z,7.6
2018-07-22T16:40:00.041Z,7.6
2018-07-22T16:41:16.225Z,7.7
2018-07-22T16:42:32.249Z,7.6
2018-07-22T16:43:48.215Z,7.5
2018-07-22T16:45:04.280Z,8
2018-07-22T16:46:20.331Z,7.5
2018-07-22T16:47:36.345Z,7.6
2018-07-22T16:48:52.358Z,7.4
2018-07-22T16:50:08.357Z,5.5
2018-07-22T16:51:23.404Z,4.6
2018-07-22T16:52:39.435Z,4.6
2018-07-22T16:53:55.494Z,4.8
2018-07-22T16:55:11.586Z,5
2018-07-22T16:56:27.590Z,5
2018-07-22T16:57:43.612Z,5.9
2018-07-22T16:58:59.584Z,7.6
2018-07-22T17:00:15.583Z,7.1
2018-07-22T17:01:31.581Z,7.9
2018-07-22T17:02:47.659Z,7
2018-07-22T17:04:03.684Z,6
2018-07-22T17:05:19.752Z,5.7
2018-07-22T17:06:36.305Z,5.8
2018-07-22T17:07:52.390Z,4.6
2018-07-22T17:09:08.445Z,4.6
2018-07-22T17:10:24.524Z,4.3
2018-07-22T17:11:40.555Z,4.1
2018-07-22T17:12:56.575Z,4.7
2018-07-22T17:14:12.568Z,5.2
2018-07-22T17:15:28.617Z,5
2018-07-22T17:16:44.596Z,4.8
2018-07-22T17:18:00.587Z,5.5
2018-07-22T17:19:16.602Z,5
2018-07-22T17:20:32.665Z,5
2018-07-22T17:21:48.650Z,5.2
2018-07-22T17:23:04.739Z,4.7
2018-07-22T17:24:20.752Z,4.9
2018-07-22T17:25:36.819Z,5
2018-07-22T17:26:52.936Z,4.5
2018-07-22T17:28:09.162Z,4.8
2018-07-22T17:29:25.280Z,5.1
2018-07-22T17:30:41.377Z,5.1
2018-07-22T17:31:57.490Z,5
2018-07-22T17:33:13.454Z,5.3
2018-07-22T17:34:29.436Z,5.3
2018-07-22T17:35:45.412Z,5
2018-07-22T17:37:01.410Z,5.1
2018-07-22T17:38:17.476Z,5.8
2018-07-22T17:39:33.491Z,5.8
2018-07-22T17:40:49.517Z,5.6
2018-07-22T17:42:05.735Z,5.9
2018-07-22T17:43:21.711Z,6.3
2018-07-22T17:44:37.681Z,6.1
2018-07-22T17:45:53.690Z,6.1
2018-07-22T17:47:09.818Z,6.4
2018-07-22T17:48:25.840Z,6.9
2018-07-22T17:49:41.836Z,7.7
2018-07-22T17:50:57.951Z,7.9